sensor_id;sensor_type;location;lat;lon;timestamp;P1;durP1;ratioP1;P2;durP2;ratioP2
31716;SDS011;18301;51.076;17.046;2023-05-13T00:01:43;12.63;;;5.63;;
31716;SDS011;18301;51.076;17.046;2023-05-13T00:06:45;9.85;;;5.47;;
31716;SDS011;18301;51.076;17.046;2023-05-13T00:11:46;12.10;;;6.25;;
31716;SDS011;18301;51.076;17.046;2023-05-13T00:16:48;8.63;;;5.32;;
31716;SDS011;18301;51.076;17.046;2023-05-13T00:21:49;11.30;;;6.18;;
31716;SDS011;18301;51.076;17.046;2023-05-13T00:26:51;10.15;;;6.28;;
31716;SDS011;18301;51.076;17.046;2023-05-13T00:31:52;12.45;;;5.95;;
31716;SDS011;18301;51.076;17.046;2023-05-13T00:36:54;12.07;;;5.55;;
31716;SDS011;18301;51.076;17.046;2023-05-13T00:41:55;12.68;;;5.88;;
31716;SDS011;18301;51.076;17.046;2023-05-13T00:46:57;10.65;;;5.55;;
31716;SDS011;18301;51.076;17.046;2023-05-13T00:51:59;14.30;;;6.10;;
31716;SDS011;18301;51.076;17.046;2023-05-13T00:57:01;9.82;;;5.40;;
31716;SDS011;18301;51.076;17.046;2023-05-13T01:02:11;8.73;;;5.72;;
31716;SDS011;18301;51.076;17.046;2023-05-13T01:12:31;10.38;;;5.40;;
31716;SDS011;18301;51.076;17.046;2023-05-13T01:22:46;9.70;;;6.03;;
31716;SDS011;18301;51.076;17.046;2023-05-13T01:27:48;13.00;;;6.25;;
31716;SDS011;18301;51.076;17.046;2023-05-13T01:32:50;11.68;;;5.93;;
31716;SDS011;18301;51.076;17.046;2023-05-13T01:37:53;14.00;;;6.80;;
31716;SDS011;18301;51.076;17.046;2023-05-13T01:42:57;9.73;;;6.25;;
31716;SDS011;18301;51.076;17.046;2023-05-13T01:47:58;11.30;;;6.07;;
31716;SDS011;18301;51.076;17.046;2023-05-13T01:53:00;9.35;;;6.07;;
31716;SDS011;18301;51.076;17.046;2023-05-13T01:58:02;12.10;;;6.20;;
31716;SDS011;18301;51.076;17.046;2023-05-13T02:03:03;10.93;;;6.50;;
31716;SDS011;18301;51.076;17.046;2023-05-13T02:08:05;10.00;;;6.40;;
31716;SDS011;18301;51.076;17.046;2023-05-13T02:13:07;9.93;;;6.75;;
31716;SDS011;18301;51.076;17.046;2023-05-13T02:18:09;10.73;;;6.93;;
31716;SDS011;18301;51.076;17.046;2023-05-13T02:23:11;13.32;;;6.78;;
31716;SDS011;18301;51.076;17.046;2023-05-13T02:28:12;14.30;;;6.95;;
31716;SDS011;18301;51.076;17.046;2023-05-13T02:33:14;10.30;;;6.10;;
31716;SDS011;18301;51.076;17.046;2023-05-13T02:38:16;11.13;;;6.40;;
31716;SDS011;18301;51.076;17.046;2023-05-13T02:43:17;13.13;;;6.60;;
31716;SDS011;18301;51.076;17.046;2023-05-13T02:48:19;10.15;;;5.97;;
31716;SDS011;18301;51.076;17.046;2023-05-13T02:53:21;12.52;;;6.88;;
31716;SDS011;18301;51.076;17.046;2023-05-13T02:58:23;10.18;;;6.22;;
31716;SDS011;18301;51.076;17.046;2023-05-13T03:03:24;11.45;;;6.45;;
31716;SDS011;18301;51.076;17.046;2023-05-13T03:08:26;13.13;;;6.40;;
31716;SDS011;18301;51.076;17.046;2023-05-13T03:13:27;12.05;;;6.10;;
31716;SDS011;18301;51.076;17.046;2023-05-13T03:18:29;13.55;;;6.47;;
31716;SDS011;18301;51.076;17.046;2023-05-13T03:23:32;9.35;;;5.88;;
31716;SDS011;18301;51.076;17.046;2023-05-13T03:28:34;12.02;;;6.75;;
31716;SDS011;18301;51.076;17.046;2023-05-13T03:33:36;9.25;;;6.85;;
31716;SDS011;18301;51.076;17.046;2023-05-13T03:38:37;12.02;;;6.68;;
31716;SDS011;18301;51.076;17.046;2023-05-13T03:43:39;9.93;;;6.70;;
31716;SDS011;18301;51.076;17.046;2023-05-13T03:48:40;11.75;;;7.30;;
31716;SDS011;18301;51.076;17.046;2023-05-13T03:53:42;17.63;;;8.45;;
31716;SDS011;18301;51.076;17.046;2023-05-13T03:58:43;15.98;;;9.15;;
31716;SDS011;18301;51.076;17.046;2023-05-13T04:03:45;15.35;;;9.13;;
31716;SDS011;18301;51.076;17.046;2023-05-13T04:08:46;14.85;;;8.23;;
31716;SDS011;18301;51.076;17.046;2023-05-13T04:13:49;12.13;;;7.72;;
31716;SDS011;18301;51.076;17.046;2023-05-13T04:18:51;9.95;;;6.82;;
31716;SDS011;18301;51.076;17.046;2023-05-13T04:23:52;14.32;;;6.50;;
31716;SDS011;18301;51.076;17.046;2023-05-13T04:28:54;9.75;;;6.05;;
31716;SDS011;18301;51.076;17.046;2023-05-13T04:33:56;9.85;;;6.35;;
31716;SDS011;18301;51.076;17.046;2023-05-13T04:38:57;7.95;;;5.85;;
31716;SDS011;18301;51.076;17.046;2023-05-13T04:43:58;10.98;;;6.63;;
31716;SDS011;18301;51.076;17.046;2023-05-13T04:49:00;10.55;;;6.95;;
31716;SDS011;18301;51.076;17.046;2023-05-13T04:54:02;11.60;;;6.63;;
31716;SDS011;18301;51.076;17.046;2023-05-13T04:59:03;11.27;;;6.35;;
31716;SDS011;18301;51.076;17.046;2023-05-13T05:04:05;8.73;;;6.43;;
31716;SDS011;18301;51.076;17.046;2023-05-13T05:09:08;9.75;;;6.50;;
31716;SDS011;18301;51.076;17.046;2023-05-13T05:14:09;10.48;;;6.40;;
31716;SDS011;18301;51.076;17.046;2023-05-13T05:19:11;9.73;;;6.28;;
31716;SDS011;18301;51.076;17.046;2023-05-13T05:24:12;12.05;;;6.78;;
31716;SDS011;18301;51.076;17.046;2023-05-13T05:29:14;12.25;;;7.03;;
31716;SDS011;18301;51.076;17.046;2023-05-13T05:34:15;12.80;;;6.80;;
31716;SDS011;18301;51.076;17.046;2023-05-13T05:39:17;13.40;;;6.60;;
31716;SDS011;18301;51.076;17.046;2023-05-13T05:44:19;13.45;;;6.80;;
31716;SDS011;18301;51.076;17.046;2023-05-13T05:49:20;12.75;;;6.35;;
31716;SDS011;18301;51.076;17.046;2023-05-13T05:54:22;11.75;;;6.88;;
31716;SDS011;18301;51.076;17.046;2023-05-13T05:59:23;10.32;;;7.40;;
31716;SDS011;18301;51.076;17.046;2023-05-13T06:04:24;11.75;;;7.53;;
31716;SDS011;18301;51.076;17.046;2023-05-13T06:09:26;9.85;;;6.65;;
31716;SDS011;18301;51.076;17.046;2023-05-13T06:14:27;11.20;;;7.10;;
31716;SDS011;18301;51.076;17.046;2023-05-13T06:19:29;9.00;;;6.93;;
31716;SDS011;18301;51.076;17.046;2023-05-13T06:24:30;10.18;;;6.82;;
31716;SDS011;18301;51.076;17.046;2023-05-13T06:29:32;10.98;;;6.78;;
31716;SDS011;18301;51.076;17.046;2023-05-13T06:34:33;11.75;;;7.03;;
31716;SDS011;18301;51.076;17.046;2023-05-13T06:39:35;12.23;;;7.15;;
31716;SDS011;18301;51.076;17.046;2023-05-13T06:44:37;12.15;;;7.40;;
31716;SDS011;18301;51.076;17.046;2023-05-13T06:49:40;11.68;;;7.45;;
31716;SDS011;18301;51.076;17.046;2023-05-13T06:54:41;12.48;;;7.53;;
31716;SDS011;18301;51.076;17.046;2023-05-13T06:59:43;13.63;;;7.90;;
31716;SDS011;18301;51.076;17.046;2023-05-13T07:04:45;9.48;;;6.78;;
31716;SDS011;18301;51.076;17.046;2023-05-13T07:09:46;13.23;;;8.15;;
31716;SDS011;18301;51.076;17.046;2023-05-13T07:14:48;10.75;;;7.03;;
31716;SDS011;18301;51.076;17.046;2023-05-13T07:19:49;13.15;;;7.07;;
31716;SDS011;18301;51.076;17.046;2023-05-13T07:24:51;11.40;;;6.70;;
31716;SDS011;18301;51.076;17.046;2023-05-13T07:29:53;16.45;;;7.82;;
31716;SDS011;18301;51.076;17.046;2023-05-13T07:34:54;11.88;;;7.85;;
31716;SDS011;18301;51.076;17.046;2023-05-13T07:39:56;12.43;;;8.00;;
31716;SDS011;18301;51.076;17.046;2023-05-13T07:44:57;11.10;;;7.90;;
31716;SDS011;18301;51.076;17.046;2023-05-13T07:49:59;10.82;;;7.38;;
31716;SDS011;18301;51.076;17.046;2023-05-13T07:55:01;14.95;;;7.45;;
31716;SDS011;18301;51.076;17.046;2023-05-13T08:00:02;9.15;;;6.70;;
31716;SDS011;18301;51.076;17.046;2023-05-13T08:05:05;11.90;;;7.30;;
31716;SDS011;18301;51.076;17.046;2023-05-13T08:10:07;11.98;;;6.93;;
31716;SDS011;18301;51.076;17.046;2023-05-13T08:15:08;10.73;;;7.28;;
31716;SDS011;18301;51.076;17.046;2023-05-13T08:20:12;9.65;;;6.80;;
31716;SDS011;18301;51.076;17.046;2023-05-13T08:25:15;14.07;;;7.10;;
31716;SDS011;18301;51.076;17.046;2023-05-13T08:30:16;10.18;;;6.47;;
31716;SDS011;18301;51.076;17.046;2023-05-13T08:35:18;11.35;;;6.85;;
31716;SDS011;18301;51.076;17.046;2023-05-13T08:40:20;9.98;;;5.85;;
31716;SDS011;18301;51.076;17.046;2023-05-13T08:45:21;7.65;;;6.13;;
31716;SDS011;18301;51.076;17.046;2023-05-13T08:50:27;9.50;;;5.50;;
31716;SDS011;18301;51.076;17.046;2023-05-13T08:55:29;9.02;;;5.85;;
31716;SDS011;18301;51.076;17.046;2023-05-13T09:00:31;9.70;;;5.63;;
31716;SDS011;18301;51.076;17.046;2023-05-13T09:05:34;7.65;;;4.35;;
31716;SDS011;18301;51.076;17.046;2023-05-13T09:10:39;6.88;;;4.18;;
31716;SDS011;18301;51.076;17.046;2023-05-13T09:15:41;5.72;;;4.30;;
31716;SDS011;18301;51.076;17.046;2023-05-13T09:20:45;5.05;;;4.05;;
31716;SDS011;18301;51.076;17.046;2023-05-13T09:25:48;9.90;;;5.10;;
31716;SDS011;18301;51.076;17.046;2023-05-13T09:30:53;9.80;;;4.88;;
31716;SDS011;18301;51.076;17.046;2023-05-13T09:35:55;6.45;;;5.03;;
31716;SDS011;18301;51.076;17.046;2023-05-13T09:40:57;8.05;;;5.22;;
31716;SDS011;18301;51.076;17.046;2023-05-13T09:46:00;7.80;;;5.93;;
31716;SDS011;18301;51.076;17.046;2023-05-13T09:51:03;7.18;;;4.20;;
31716;SDS011;18301;51.076;17.046;2023-05-13T09:56:07;6.50;;;4.50;;
31716;SDS011;18301;51.076;17.046;2023-05-13T10:01:10;8.27;;;5.43;;
31716;SDS011;18301;51.076;17.046;2023-05-13T10:06:12;7.18;;;5.50;;
31716;SDS011;18301;51.076;17.046;2023-05-13T10:11:18;6.53;;;4.78;;
31716;SDS011;18301;51.076;17.046;2023-05-13T10:16:20;6.78;;;4.40;;
31716;SDS011;18301;51.076;17.046;2023-05-13T10:21:26;5.13;;;3.67;;
31716;SDS011;18301;51.076;17.046;2023-05-13T10:26:28;6.50;;;4.35;;
31716;SDS011;18301;51.076;17.046;2023-05-13T10:31:30;6.07;;;4.20;;
31716;SDS011;18301;51.076;17.046;2023-05-13T10:36:55;6.72;;;4.07;;
31716;SDS011;18301;51.076;17.046;2023-05-13T10:42:18;5.68;;;3.30;;
31716;SDS011;18301;51.076;17.046;2023-05-13T10:47:42;6.07;;;4.63;;
31716;SDS011;18301;51.076;17.046;2023-05-13T10:52:47;6.10;;;4.53;;
31716;SDS011;18301;51.076;17.046;2023-05-13T10:58:08;6.95;;;4.18;;
31716;SDS011;18301;51.076;17.046;2023-05-13T11:03:13;6.50;;;4.18;;
31716;SDS011;18301;51.076;17.046;2023-05-13T11:08:31;4.97;;;3.88;;
31716;SDS011;18301;51.076;17.046;2023-05-13T11:13:43;6.28;;;4.10;;
31716;SDS011;18301;51.076;17.046;2023-05-13T11:18:45;7.30;;;4.22;;
31716;SDS011;18301;51.076;17.046;2023-05-13T11:23:57;5.82;;;4.13;;
31716;SDS011;18301;51.076;17.046;2023-05-13T11:29:05;5.63;;;4.10;;
31716;SDS011;18301;51.076;17.046;2023-05-13T11:39:10;7.68;;;4.07;;
31716;SDS011;18301;51.076;17.046;2023-05-13T11:44:17;6.35;;;4.50;;
31716;SDS011;18301;51.076;17.046;2023-05-13T11:54:48;7.90;;;5.20;;
31716;SDS011;18301;51.076;17.046;2023-05-13T11:59:54;9.88;;;5.25;;
31716;SDS011;18301;51.076;17.046;2023-05-13T12:05:00;8.18;;;4.63;;
31716;SDS011;18301;51.076;17.046;2023-05-13T12:10:05;7.88;;;4.20;;
31716;SDS011;18301;51.076;17.046;2023-05-13T12:15:11;4.65;;;3.72;;
31716;SDS011;18301;51.076;17.046;2023-05-13T12:20:15;5.28;;;3.50;;
31716;SDS011;18301;51.076;17.046;2023-05-13T12:30:36;5.47;;;3.78;;
31716;SDS011;18301;51.076;17.046;2023-05-13T12:35:39;7.00;;;4.07;;
31716;SDS011;18301;51.076;17.046;2023-05-13T12:40:40;4.95;;;3.67;;
31716;SDS011;18301;51.076;17.046;2023-05-13T12:45:42;7.05;;;3.45;;
31716;SDS011;18301;51.076;17.046;2023-05-13T12:50:45;6.93;;;3.55;;
31716;SDS011;18301;51.076;17.046;2023-05-13T12:55:48;4.97;;;3.10;;
31716;SDS011;18301;51.076;17.046;2023-05-13T13:00:49;5.70;;;3.28;;
31716;SDS011;18301;51.076;17.046;2023-05-13T13:05:51;5.22;;;3.50;;
31716;SDS011;18301;51.076;17.046;2023-05-13T13:10:52;6.88;;;3.70;;
31716;SDS011;18301;51.076;17.046;2023-05-13T13:15:54;6.72;;;3.40;;
31716;SDS011;18301;51.076;17.046;2023-05-13T13:20:55;11.30;;;3.83;;
31716;SDS011;18301;51.076;17.046;2023-05-13T13:25:57;9.07;;;4.40;;
31716;SDS011;18301;51.076;17.046;2023-05-13T13:30:59;6.97;;;4.55;;
31716;SDS011;18301;51.076;17.046;2023-05-13T13:36:00;6.25;;;4.57;;
31716;SDS011;18301;51.076;17.046;2023-05-13T13:41:02;7.95;;;5.13;;
31716;SDS011;18301;51.076;17.046;2023-05-13T13:46:03;7.22;;;4.93;;
31716;SDS011;18301;51.076;17.046;2023-05-13T13:51:05;8.50;;;4.60;;
31716;SDS011;18301;51.076;17.046;2023-05-13T13:56:06;8.30;;;4.28;;
31716;SDS011;18301;51.076;17.046;2023-05-13T14:01:08;4.93;;;3.75;;
31716;SDS011;18301;51.076;17.046;2023-05-13T14:06:10;6.53;;;3.70;;
31716;SDS011;18301;51.076;17.046;2023-05-13T14:11:11;4.78;;;4.00;;
31716;SDS011;18301;51.076;17.046;2023-05-13T14:16:13;9.25;;;4.30;;
31716;SDS011;18301;51.076;17.046;2023-05-13T14:21:15;5.65;;;3.90;;
31716;SDS011;18301;51.076;17.046;2023-05-13T14:26:17;9.77;;;4.60;;
31716;SDS011;18301;51.076;17.046;2023-05-13T14:31:18;5.57;;;3.95;;
31716;SDS011;18301;51.076;17.046;2023-05-13T14:36:20;11.77;;;4.97;;
31716;SDS011;18301;51.076;17.046;2023-05-13T14:41:22;5.32;;;3.60;;
31716;SDS011;18301;51.076;17.046;2023-05-13T14:46:25;6.82;;;4.53;;
31716;SDS011;18301;51.076;17.046;2023-05-13T14:51:27;5.15;;;3.70;;
31716;SDS011;18301;51.076;17.046;2023-05-13T14:56:29;8.35;;;3.45;;
31716;SDS011;18301;51.076;17.046;2023-05-13T15:01:30;5.68;;;3.78;;
31716;SDS011;18301;51.076;17.046;2023-05-13T15:06:32;6.65;;;3.50;;
31716;SDS011;18301;51.076;17.046;2023-05-13T15:11:34;5.97;;;3.75;;
31716;SDS011;18301;51.076;17.046;2023-05-13T15:16:58;6.75;;;3.20;;
31716;SDS011;18301;51.076;17.046;2023-05-13T15:22:00;9.75;;;3.55;;
31716;SDS011;18301;51.076;17.046;2023-05-13T15:27:01;5.40;;;3.20;;
31716;SDS011;18301;51.076;17.046;2023-05-13T15:32:03;4.47;;;3.20;;
31716;SDS011;18301;51.076;17.046;2023-05-13T15:37:06;6.03;;;3.20;;
31716;SDS011;18301;51.076;17.046;2023-05-13T15:42:08;5.35;;;3.10;;
31716;SDS011;18301;51.076;17.046;2023-05-13T15:47:09;3.55;;;2.67;;
31716;SDS011;18301;51.076;17.046;2023-05-13T15:52:11;4.43;;;3.33;;
31716;SDS011;18301;51.076;17.046;2023-05-13T15:57:12;5.70;;;3.28;;
31716;SDS011;18301;51.076;17.046;2023-05-13T16:02:15;4.60;;;3.30;;
31716;SDS011;18301;51.076;17.046;2023-05-13T16:07:18;7.43;;;3.75;;
31716;SDS011;18301;51.076;17.046;2023-05-13T16:12:19;8.45;;;3.30;;
31716;SDS011;18301;51.076;17.046;2023-05-13T16:17:21;6.25;;;3.95;;
31716;SDS011;18301;51.076;17.046;2023-05-13T16:22:32;4.95;;;3.55;;
31716;SDS011;18301;51.076;17.046;2023-05-13T16:27:38;6.15;;;3.70;;
31716;SDS011;18301;51.076;17.046;2023-05-13T16:32:40;7.63;;;3.80;;
31716;SDS011;18301;51.076;17.046;2023-05-13T16:37:41;5.85;;;3.95;;
31716;SDS011;18301;51.076;17.046;2023-05-13T16:42:42;5.15;;;4.40;;
31716;SDS011;18301;51.076;17.046;2023-05-13T16:47:44;7.60;;;5.18;;
31716;SDS011;18301;51.076;17.046;2023-05-13T16:52:46;8.85;;;4.50;;
31716;SDS011;18301;51.076;17.046;2023-05-13T16:57:47;6.35;;;4.25;;
31716;SDS011;18301;51.076;17.046;2023-05-13T17:02:49;7.60;;;3.75;;
31716;SDS011;18301;51.076;17.046;2023-05-13T17:07:50;7.63;;;4.15;;
31716;SDS011;18301;51.076;17.046;2023-05-13T17:12:52;10.90;;;4.32;;
31716;SDS011;18301;51.076;17.046;2023-05-13T17:17:53;7.13;;;4.22;;
31716;SDS011;18301;51.076;17.046;2023-05-13T17:22:55;4.95;;;3.58;;
31716;SDS011;18301;51.076;17.046;2023-05-13T17:27:56;7.88;;;4.45;;
31716;SDS011;18301;51.076;17.046;2023-05-13T17:32:57;8.65;;;4.25;;
31716;SDS011;18301;51.076;17.046;2023-05-13T17:37:59;8.63;;;4.93;;
31716;SDS011;18301;51.076;17.046;2023-05-13T17:43:00;12.98;;;4.95;;
31716;SDS011;18301;51.076;17.046;2023-05-13T17:48:03;7.85;;;4.95;;
31716;SDS011;18301;51.076;17.046;2023-05-13T17:53:05;10.20;;;5.25;;
31716;SDS011;18301;51.076;17.046;2023-05-13T17:58:07;12.25;;;5.85;;
31716;SDS011;18301;51.076;17.046;2023-05-13T18:03:08;9.55;;;6.20;;
31716;SDS011;18301;51.076;17.046;2023-05-13T18:08:10;16.00;;;6.85;;
31716;SDS011;18301;51.076;17.046;2023-05-13T18:13:11;15.35;;;6.90;;
31716;SDS011;18301;51.076;17.046;2023-05-13T18:18:13;13.00;;;6.45;;
31716;SDS011;18301;51.076;17.046;2023-05-13T18:23:16;12.82;;;7.82;;
31716;SDS011;18301;51.076;17.046;2023-05-13T18:28:18;14.70;;;6.90;;
31716;SDS011;18301;51.076;17.046;2023-05-13T18:33:19;11.32;;;7.20;;
31716;SDS011;18301;51.076;17.046;2023-05-13T18:38:21;14.02;;;6.93;;
31716;SDS011;18301;51.076;17.046;2023-05-13T18:43:23;17.80;;;8.20;;
31716;SDS011;18301;51.076;17.046;2023-05-13T18:48:25;12.57;;;8.00;;
31716;SDS011;18301;51.076;17.046;2023-05-13T18:53:26;14.43;;;8.43;;
31716;SDS011;18301;51.076;17.046;2023-05-13T18:58:28;14.95;;;9.02;;
31716;SDS011;18301;51.076;17.046;2023-05-13T19:03:29;13.80;;;7.93;;
31716;SDS011;18301;51.076;17.046;2023-05-13T19:08:31;17.10;;;8.60;;
31716;SDS011;18301;51.076;17.046;2023-05-13T19:13:33;13.77;;;8.00;;
31716;SDS011;18301;51.076;17.046;2023-05-13T19:18:47;13.63;;;7.72;;
31716;SDS011;18301;51.076;17.046;2023-05-13T19:23:49;11.82;;;8.07;;
31716;SDS011;18301;51.076;17.046;2023-05-13T19:28:50;11.25;;;7.40;;
31716;SDS011;18301;51.076;17.046;2023-05-13T19:33:52;15.52;;;7.15;;
31716;SDS011;18301;51.076;17.046;2023-05-13T19:38:53;12.52;;;7.25;;
31716;SDS011;18301;51.076;17.046;2023-05-13T19:43:55;13.20;;;8.13;;
31716;SDS011;18301;51.076;17.046;2023-05-13T19:48:57;14.30;;;7.90;;
31716;SDS011;18301;51.076;17.046;2023-05-13T19:53:58;14.57;;;8.23;;
31716;SDS011;18301;51.076;17.046;2023-05-13T19:59:00;13.13;;;8.50;;
31716;SDS011;18301;51.076;17.046;2023-05-13T20:04:01;13.32;;;8.32;;
31716;SDS011;18301;51.076;17.046;2023-05-13T20:09:03;13.55;;;8.50;;
31716;SDS011;18301;51.076;17.046;2023-05-13T20:14:06;13.27;;;8.35;;
31716;SDS011;18301;51.076;17.046;2023-05-13T20:19:07;16.92;;;8.98;;
31716;SDS011;18301;51.076;17.046;2023-05-13T20:24:10;15.23;;;8.65;;
31716;SDS011;18301;51.076;17.046;2023-05-13T20:29:11;19.45;;;8.57;;
31716;SDS011;18301;51.076;17.046;2023-05-13T20:34:13;18.70;;;8.90;;
31716;SDS011;18301;51.076;17.046;2023-05-13T20:39:15;12.15;;;8.40;;
31716;SDS011;18301;51.076;17.046;2023-05-13T20:44:16;16.52;;;8.65;;
31716;SDS011;18301;51.076;17.046;2023-05-13T20:49:18;19.27;;;9.35;;
31716;SDS011;18301;51.076;17.046;2023-05-13T20:54:20;15.00;;;9.40;;
31716;SDS011;18301;51.076;17.046;2023-05-13T20:59:21;18.00;;;9.93;;
31716;SDS011;18301;51.076;17.046;2023-05-13T21:04:23;15.20;;;9.80;;
31716;SDS011;18301;51.076;17.046;2023-05-13T21:09:27;16.70;;;9.23;;
31716;SDS011;18301;51.076;17.046;2023-05-13T21:14:28;15.27;;;9.13;;
31716;SDS011;18301;51.076;17.046;2023-05-13T21:19:30;17.30;;;9.55;;
31716;SDS011;18301;51.076;17.046;2023-05-13T21:24:32;15.68;;;10.48;;
31716;SDS011;18301;51.076;17.046;2023-05-13T21:29:33;17.58;;;10.57;;
31716;SDS011;18301;51.076;17.046;2023-05-13T21:34:35;18.17;;;11.00;;
31716;SDS011;18301;51.076;17.046;2023-05-13T21:39:36;15.60;;;10.23;;
31716;SDS011;18301;51.076;17.046;2023-05-13T21:44:38;20.92;;;10.65;;
31716;SDS011;18301;51.076;17.046;2023-05-13T21:49:41;18.10;;;10.18;;
31716;SDS011;18301;51.076;17.046;2023-05-13T21:54:42;18.02;;;10.38;;
31716;SDS011;18301;51.076;17.046;2023-05-13T21:59:43;15.52;;;10.02;;
31716;SDS011;18301;51.076;17.046;2023-05-13T22:04:45;18.23;;;9.73;;
31716;SDS011;18301;51.076;17.046;2023-05-13T22:09:46;16.20;;;10.90;;
31716;SDS011;18301;51.076;17.046;2023-05-13T22:14:50;15.95;;;9.38;;
31716;SDS011;18301;51.076;17.046;2023-05-13T22:19:52;16.30;;;10.20;;
31716;SDS011;18301;51.076;17.046;2023-05-13T22:24:54;15.35;;;9.85;;
31716;SDS011;18301;51.076;17.046;2023-05-13T22:29:55;17.25;;;9.77;;
31716;SDS011;18301;51.076;17.046;2023-05-13T22:34:57;14.88;;;9.65;;
31716;SDS011;18301;51.076;17.046;2023-05-13T22:39:58;14.13;;;9.93;;
31716;SDS011;18301;51.076;17.046;2023-05-13T22:44:59;17.45;;;9.52;;
31716;SDS011;18301;51.076;17.046;2023-05-13T22:50:02;16.48;;;9.32;;
31716;SDS011;18301;51.076;17.046;2023-05-13T22:55:04;16.92;;;9.68;;
31716;SDS011;18301;51.076;17.046;2023-05-13T23:00:06;14.30;;;9.23;;
31716;SDS011;18301;51.076;17.046;2023-05-13T23:05:08;14.02;;;8.68;;
31716;SDS011;18301;51.076;17.046;2023-05-13T23:10:10;15.10;;;9.75;;
31716;SDS011;18301;51.076;17.046;2023-05-13T23:15:11;15.82;;;9.60;;
31716;SDS011;18301;51.076;17.046;2023-05-13T23:20:16;21.95;;;9.93;;
31716;SDS011;18301;51.076;17.046;2023-05-13T23:25:18;14.18;;;9.43;;
31716;SDS011;18301;51.076;17.046;2023-05-13T23:30:20;15.45;;;9.63;;
31716;SDS011;18301;51.076;17.046;2023-05-13T23:35:22;15.57;;;9.57;;
31716;SDS011;18301;51.076;17.046;2023-05-13T23:40:23;15.40;;;9.80;;
31716;SDS011;18301;51.076;17.046;2023-05-13T23:45:25;13.65;;;9.52;;
31716;SDS011;18301;51.076;17.046;2023-05-13T23:50:27;18.45;;;9.90;;
31716;SDS011;18301;51.076;17.046;2023-05-13T23:55:28;13.75;;;9.65;;
